sensor_id;sensor_type;location;lat;lon;timestamp;temperature;humidity
7606;DHT22;3844;53.360;9.738;2022-10-16T00:02:17;12.50;95.70
7606;DHT22;3844;53.360;9.738;2022-10-16T00:06:20;12.40;95.70
7606;DHT22;3844;53.360;9.738;2022-10-16T00:08:21;12.40;95.70
7606;DHT22;3844;53.360;9.738;2022-10-16T00:10:22;12.30;95.70
7606;DHT22;3844;53.360;9.738;2022-10-16T00:12:23;12.20;95.70
7606;DHT22;3844;53.360;9.738;2022-10-16T00:14:23;12.30;95.70
7606;DHT22;3844;53.360;9.738;2022-10-16T00:16:24;12.30;95.70
7606;DHT22;3844;53.360;9.738;2022-10-16T00:18:26;12.20;95.70
7606;DHT22;3844;53.360;9.738;2022-10-16T00:20:27;12.20;95.70
7606;DHT22;3844;53.360;9.738;2022-10-16T00:22:29;12.10;95.70
7606;DHT22;3844;53.360;9.738;2022-10-16T00:24:29;12.10;95.70
7606;DHT22;3844;53.360;9.738;2022-10-16T00:26:31;12.10;95.70
7606;DHT22;3844;53.360;9.738;2022-10-16T00:28:33;12.10;95.70
7606;DHT22;3844;53.360;9.738;2022-10-16T00:30:33;12.10;95.70
7606;DHT22;3844;53.360;9.738;2022-10-16T00:34:35;12.10;95.70
7606;DHT22;3844;53.360;9.738;2022-10-16T00:36:36;12.10;95.70
7606;DHT22;3844;53.360;9.738;2022-10-16T00:38:37;12.00;95.70
7606;DHT22;3844;53.360;9.738;2022-10-16T00:40:40;12.00;95.70
7606;DHT22;3844;53.360;9.738;2022-10-16T00:42:41;12.00;95.70
7606;DHT22;3844;53.360;9.738;2022-10-16T00:44:57;12.00;95.70
7606;DHT22;3844;53.360;9.738;2022-10-16T00:49:14;12.00;95.70
7606;DHT22;3844;53.360;9.738;2022-10-16T00:51:21;12.00;95.70
7606;DHT22;3844;53.360;9.738;2022-10-16T00:53:24;12.00;95.70
7606;DHT22;3844;53.360;9.738;2022-10-16T00:55:25;12.00;95.70
7606;DHT22;3844;53.360;9.738;2022-10-16T00:57:27;12.00;95.70
7606;DHT22;3844;53.360;9.738;2022-10-16T00:59:29;12.00;95.70
7606;DHT22;3844;53.360;9.738;2022-10-16T01:01:30;12.00;95.70
7606;DHT22;3844;53.360;9.738;2022-10-16T01:03:34;12.00;95.70
7606;DHT22;3844;53.360;9.738;2022-10-16T01:08:23;12.00;95.70
7606;DHT22;3844;53.360;9.738;2022-10-16T01:10:44;11.90;95.70
7606;DHT22;3844;53.360;9.738;2022-10-16T01:13:04;11.90;95.70
7606;DHT22;3844;53.360;9.738;2022-10-16T01:20:14;11.80;95.70
7606;DHT22;3844;53.360;9.738;2022-10-16T01:22:21;11.80;95.70
7606;DHT22;3844;53.360;9.738;2022-10-16T01:24:31;11.80;95.70
7606;DHT22;3844;53.360;9.738;2022-10-16T01:31:05;11.70;95.70
7606;DHT22;3844;53.360;9.738;2022-10-16T01:35:33;11.70;95.70
7606;DHT22;3844;53.360;9.738;2022-10-16T01:37:39;11.60;95.70
7606;DHT22;3844;53.360;9.738;2022-10-16T01:39:44;11.60;95.70
7606;DHT22;3844;53.360;9.738;2022-10-16T01:41:50;11.50;95.70
7606;DHT22;3844;53.360;9.738;2022-10-16T01:46:02;11.40;95.70
7606;DHT22;3844;53.360;9.738;2022-10-16T01:48:04;11.40;95.70
7606;DHT22;3844;53.360;9.738;2022-10-16T01:50:08;11.40;95.70
7606;DHT22;3844;53.360;9.738;2022-10-16T01:52:13;11.40;95.70
7606;DHT22;3844;53.360;9.738;2022-10-16T01:54:17;11.40;95.70
7606;DHT22;3844;53.360;9.738;2022-10-16T01:56:20;11.40;95.70
7606;DHT22;3844;53.360;9.738;2022-10-16T01:58:24;11.40;95.70
7606;DHT22;3844;53.360;9.738;2022-10-16T02:00:26;11.40;95.70
7606;DHT22;3844;53.360;9.738;2022-10-16T02:02:28;11.40;95.70
7606;DHT22;3844;53.360;9.738;2022-10-16T02:04:31;11.40;95.70
7606;DHT22;3844;53.360;9.738;2022-10-16T02:08:35;11.40;95.70
7606;DHT22;3844;53.360;9.738;2022-10-16T02:10:37;11.40;95.70
7606;DHT22;3844;53.360;9.738;2022-10-16T02:12:42;11.40;95.70
7606;DHT22;3844;53.360;9.738;2022-10-16T02:14:44;11.40;95.70
7606;DHT22;3844;53.360;9.738;2022-10-16T02:16:46;11.30;95.70
7606;DHT22;3844;53.360;9.738;2022-10-16T02:18:47;11.30;95.70
7606;DHT22;3844;53.360;9.738;2022-10-16T02:22:51;11.20;95.70
7606;DHT22;3844;53.360;9.738;2022-10-16T02:25:05;11.20;95.70
7606;DHT22;3844;53.360;9.738;2022-10-16T02:29:12;11.10;95.70
7606;DHT22;3844;53.360;9.738;2022-10-16T02:31:18;11.00;95.70
7606;DHT22;3844;53.360;9.738;2022-10-16T02:33:20;11.00;95.70
7606;DHT22;3844;53.360;9.738;2022-10-16T02:35:23;10.90;95.70
7606;DHT22;3844;53.360;9.738;2022-10-16T02:37:25;10.90;95.70
7606;DHT22;3844;53.360;9.738;2022-10-16T02:39:27;10.90;95.70
7606;DHT22;3844;53.360;9.738;2022-10-16T02:41:29;10.90;95.70
7606;DHT22;3844;53.360;9.738;2022-10-16T02:43:29;10.90;95.70
7606;DHT22;3844;53.360;9.738;2022-10-16T02:45:31;10.90;95.70
7606;DHT22;3844;53.360;9.738;2022-10-16T02:47:32;10.80;95.70
7606;DHT22;3844;53.360;9.738;2022-10-16T02:51:33;10.70;95.70
7606;DHT22;3844;53.360;9.738;2022-10-16T02:53:34;10.70;95.70
7606;DHT22;3844;53.360;9.738;2022-10-16T02:55:35;10.60;95.70
7606;DHT22;3844;53.360;9.738;2022-10-16T02:57:35;10.60;95.70
7606;DHT22;3844;53.360;9.738;2022-10-16T02:59:37;10.60;95.70
7606;DHT22;3844;53.360;9.738;2022-10-16T03:01:38;10.60;95.70
7606;DHT22;3844;53.360;9.738;2022-10-16T03:03:38;10.50;95.70
7606;DHT22;3844;53.360;9.738;2022-10-16T03:07:40;10.50;95.70
7606;DHT22;3844;53.360;9.738;2022-10-16T03:09:41;10.50;95.70
7606;DHT22;3844;53.360;9.738;2022-10-16T03:13:43;10.50;95.70
7606;DHT22;3844;53.360;9.738;2022-10-16T03:15:43;10.50;95.70
7606;DHT22;3844;53.360;9.738;2022-10-16T03:17:44;10.50;95.70
7606;DHT22;3844;53.360;9.738;2022-10-16T03:19:45;10.40;95.70
7606;DHT22;3844;53.360;9.738;2022-10-16T03:21:45;10.40;95.70
7606;DHT22;3844;53.360;9.738;2022-10-16T03:27:48;10.40;95.70
7606;DHT22;3844;53.360;9.738;2022-10-16T03:33:51;10.50;95.70
7606;DHT22;3844;53.360;9.738;2022-10-16T03:35:52;10.50;95.70
7606;DHT22;3844;53.360;9.738;2022-10-16T03:37:53;10.50;95.70
7606;DHT22;3844;53.360;9.738;2022-10-16T03:41:55;10.40;95.70
7606;DHT22;3844;53.360;9.738;2022-10-16T03:45:57;10.40;95.70
7606;DHT22;3844;53.360;9.738;2022-10-16T03:49:59;10.40;95.70
7606;DHT22;3844;53.360;9.738;2022-10-16T03:52:00;10.40;95.70
7606;DHT22;3844;53.360;9.738;2022-10-16T03:56:02;10.40;95.70
7606;DHT22;3844;53.360;9.738;2022-10-16T04:00:04;10.30;95.70
7606;DHT22;3844;53.360;9.738;2022-10-16T04:02:04;10.30;95.70
7606;DHT22;3844;53.360;9.738;2022-10-16T04:04:05;10.30;95.70
7606;DHT22;3844;53.360;9.738;2022-10-16T04:08:07;10.30;95.70
7606;DHT22;3844;53.360;9.738;2022-10-16T04:10:08;10.20;95.70
7606;DHT22;3844;53.360;9.738;2022-10-16T04:14:10;10.20;95.70
7606;DHT22;3844;53.360;9.738;2022-10-16T04:18:11;10.20;95.70
7606;DHT22;3844;53.360;9.738;2022-10-16T04:20:12;10.10;95.70
7606;DHT22;3844;53.360;9.738;2022-10-16T04:24:14;10.20;95.70
7606;DHT22;3844;53.360;9.738;2022-10-16T04:28:15;10.10;95.70
7606;DHT22;3844;53.360;9.738;2022-10-16T04:30:16;10.10;95.70
7606;DHT22;3844;53.360;9.738;2022-10-16T04:34:18;10.10;95.70
7606;DHT22;3844;53.360;9.738;2022-10-16T04:36:18;10.10;95.70
7606;DHT22;3844;53.360;9.738;2022-10-16T04:38:19;10.10;95.70
7606;DHT22;3844;53.360;9.738;2022-10-16T04:42:21;10.10;95.70
7606;DHT22;3844;53.360;9.738;2022-10-16T04:46:22;10.10;95.70
7606;DHT22;3844;53.360;9.738;2022-10-16T04:48:23;10.20;95.70
7606;DHT22;3844;53.360;9.738;2022-10-16T04:50:24;10.20;95.70
7606;DHT22;3844;53.360;9.738;2022-10-16T04:54:26;10.20;95.70
7606;DHT22;3844;53.360;9.738;2022-10-16T04:56:27;10.20;95.70
7606;DHT22;3844;53.360;9.738;2022-10-16T05:00:29;10.20;95.70
7606;DHT22;3844;53.360;9.738;2022-10-16T05:02:29;10.10;95.70
7606;DHT22;3844;53.360;9.738;2022-10-16T05:06:31;10.20;95.70
7606;DHT22;3844;53.360;9.738;2022-10-16T05:10:33;10.20;95.70
7606;DHT22;3844;53.360;9.738;2022-10-16T05:14:35;10.20;95.70
7606;DHT22;3844;53.360;9.738;2022-10-16T05:18:36;10.20;95.70
7606;DHT22;3844;53.360;9.738;2022-10-16T05:22:38;10.20;95.70
7606;DHT22;3844;53.360;9.738;2022-10-16T05:24:39;10.20;95.70
7606;DHT22;3844;53.360;9.738;2022-10-16T05:28:41;10.20;95.70
7606;DHT22;3844;53.360;9.738;2022-10-16T05:32:47;10.20;95.70
7606;DHT22;3844;53.360;9.738;2022-10-16T05:34:48;10.20;95.70
7606;DHT22;3844;53.360;9.738;2022-10-16T05:38:51;10.20;95.70
7606;DHT22;3844;53.360;9.738;2022-10-16T05:40:52;10.20;95.70
7606;DHT22;3844;53.360;9.738;2022-10-16T05:42:55;10.20;95.70
7606;DHT22;3844;53.360;9.738;2022-10-16T05:44:56;10.20;95.70
7606;DHT22;3844;53.360;9.738;2022-10-16T05:48:57;10.30;95.70
7606;DHT22;3844;53.360;9.738;2022-10-16T05:51:00;10.30;95.70
7606;DHT22;3844;53.360;9.738;2022-10-16T05:53:00;10.30;95.70
7606;DHT22;3844;53.360;9.738;2022-10-16T05:57:02;10.40;95.70
7606;DHT22;3844;53.360;9.738;2022-10-16T05:59:04;10.50;95.70
7606;DHT22;3844;53.360;9.738;2022-10-16T06:01:17;10.50;95.70
7606;DHT22;3844;53.360;9.738;2022-10-16T06:03:17;10.50;95.70
7606;DHT22;3844;53.360;9.738;2022-10-16T06:07:19;10.50;95.70
7606;DHT22;3844;53.360;9.738;2022-10-16T06:11:25;10.60;95.70
7606;DHT22;3844;53.360;9.738;2022-10-16T06:13:26;10.60;95.70
7606;DHT22;3844;53.360;9.738;2022-10-16T06:17:28;10.70;95.70
7606;DHT22;3844;53.360;9.738;2022-10-16T06:23:31;10.70;95.70
7606;DHT22;3844;53.360;9.738;2022-10-16T06:25:31;10.70;95.70
7606;DHT22;3844;53.360;9.738;2022-10-16T06:29:33;10.80;95.70
7606;DHT22;3844;53.360;9.738;2022-10-16T06:33:36;10.90;95.70
7606;DHT22;3844;53.360;9.738;2022-10-16T06:35:37;10.90;95.70
7606;DHT22;3844;53.360;9.738;2022-10-16T06:39:38;10.90;95.70
7606;DHT22;3844;53.360;9.738;2022-10-16T06:41:39;11.00;95.70
7606;DHT22;3844;53.360;9.738;2022-10-16T06:43:40;11.00;95.70
7606;DHT22;3844;53.360;9.738;2022-10-16T06:45:41;11.10;95.70
7606;DHT22;3844;53.360;9.738;2022-10-16T06:49:43;11.30;95.70
7606;DHT22;3844;53.360;9.738;2022-10-16T06:51:43;11.30;95.70
7606;DHT22;3844;53.360;9.738;2022-10-16T06:53:50;11.30;95.70
7606;DHT22;3844;53.360;9.738;2022-10-16T06:55:53;11.40;95.70
7606;DHT22;3844;53.360;9.738;2022-10-16T06:57:57;11.50;95.70
7606;DHT22;3844;53.360;9.738;2022-10-16T06:59:58;11.60;95.70
7606;DHT22;3844;53.360;9.738;2022-10-16T07:02:01;11.60;95.70
7606;DHT22;3844;53.360;9.738;2022-10-16T07:04:02;11.70;95.70
7606;DHT22;3844;53.360;9.738;2022-10-16T07:06:04;11.80;95.70
7606;DHT22;3844;53.360;9.738;2022-10-16T07:08:05;11.90;95.70
7606;DHT22;3844;53.360;9.738;2022-10-16T07:10:06;12.10;95.70
7606;DHT22;3844;53.360;9.738;2022-10-16T07:12:07;12.20;95.70
7606;DHT22;3844;53.360;9.738;2022-10-16T07:14:17;12.30;95.70
7606;DHT22;3844;53.360;9.738;2022-10-16T07:16:20;12.40;95.70
7606;DHT22;3844;53.360;9.738;2022-10-16T07:18:22;12.40;95.70
7606;DHT22;3844;53.360;9.738;2022-10-16T07:20:26;12.50;95.70
7606;DHT22;3844;53.360;9.738;2022-10-16T07:22:28;12.50;95.70
7606;DHT22;3844;53.360;9.738;2022-10-16T07:24:29;12.60;95.70
7606;DHT22;3844;53.360;9.738;2022-10-16T07:26:32;12.50;95.70
7606;DHT22;3844;53.360;9.738;2022-10-16T07:28:33;12.50;95.70
7606;DHT22;3844;53.360;9.738;2022-10-16T07:30:35;12.50;95.70
7606;DHT22;3844;53.360;9.738;2022-10-16T07:32:37;12.60;95.70
7606;DHT22;3844;53.360;9.738;2022-10-16T07:34:38;12.70;95.70
7606;DHT22;3844;53.360;9.738;2022-10-16T07:36:38;12.80;95.70
7606;DHT22;3844;53.360;9.738;2022-10-16T07:38:39;12.90;95.70
7606;DHT22;3844;53.360;9.738;2022-10-16T07:40:40;13.10;95.70
7606;DHT22;3844;53.360;9.738;2022-10-16T07:42:40;13.20;95.70
7606;DHT22;3844;53.360;9.738;2022-10-16T07:44:41;13.30;95.70
7606;DHT22;3844;53.360;9.738;2022-10-16T07:46:42;13.30;95.70
7606;DHT22;3844;53.360;9.738;2022-10-16T07:48:43;13.50;95.70
7606;DHT22;3844;53.360;9.738;2022-10-16T07:50:48;13.60;95.70
7606;DHT22;3844;53.360;9.738;2022-10-16T07:52:49;13.70;95.70
7606;DHT22;3844;53.360;9.738;2022-10-16T07:54:50;13.80;95.70
7606;DHT22;3844;53.360;9.738;2022-10-16T07:56:50;13.90;95.70
7606;DHT22;3844;53.360;9.738;2022-10-16T07:58:51;14.10;95.70
7606;DHT22;3844;53.360;9.738;2022-10-16T08:00:52;14.20;95.70
7606;DHT22;3844;53.360;9.738;2022-10-16T08:02:53;14.40;95.70
7606;DHT22;3844;53.360;9.738;2022-10-16T08:04:53;14.40;95.70
7606;DHT22;3844;53.360;9.738;2022-10-16T08:06:54;14.50;95.70
7606;DHT22;3844;53.360;9.738;2022-10-16T08:08:55;14.50;95.70
7606;DHT22;3844;53.360;9.738;2022-10-16T08:10:56;14.60;95.70
7606;DHT22;3844;53.360;9.738;2022-10-16T08:12:57;14.60;95.70
7606;DHT22;3844;53.360;9.738;2022-10-16T08:14:58;14.60;95.70
7606;DHT22;3844;53.360;9.738;2022-10-16T08:16:58;14.70;95.70
7606;DHT22;3844;53.360;9.738;2022-10-16T08:18:59;14.70;95.70
7606;DHT22;3844;53.360;9.738;2022-10-16T08:21:00;14.80;95.70
7606;DHT22;3844;53.360;9.738;2022-10-16T08:23:01;14.90;95.70
7606;DHT22;3844;53.360;9.738;2022-10-16T08:25:02;15.00;95.70
7606;DHT22;3844;53.360;9.738;2022-10-16T08:27:03;15.10;95.70
7606;DHT22;3844;53.360;9.738;2022-10-16T08:29:03;15.10;95.70
7606;DHT22;3844;53.360;9.738;2022-10-16T08:31:14;15.20;95.40
7606;DHT22;3844;53.360;9.738;2022-10-16T08:35:17;15.50;95.00
7606;DHT22;3844;53.360;9.738;2022-10-16T08:37:17;15.70;95.30
7606;DHT22;3844;53.360;9.738;2022-10-16T08:48:57;16.90;89.70
7606;DHT22;3844;53.360;9.738;2022-10-16T08:51:02;17.10;90.40
7606;DHT22;3844;53.360;9.738;2022-10-16T08:53:04;17.20;89.50
7606;DHT22;3844;53.360;9.738;2022-10-16T08:55:08;17.40;89.00
7606;DHT22;3844;53.360;9.738;2022-10-16T08:57:22;17.60;87.40
7606;DHT22;3844;53.360;9.738;2022-10-16T08:59:23;17.80;88.00
7606;DHT22;3844;53.360;9.738;2022-10-16T09:01:37;17.70;86.30
7606;DHT22;3844;53.360;9.738;2022-10-16T09:12:26;17.90;86.60
7606;DHT22;3844;53.360;9.738;2022-10-16T09:16:58;18.20;82.30
7606;DHT22;3844;53.360;9.738;2022-10-16T09:21:25;18.60;82.80
7606;DHT22;3844;53.360;9.738;2022-10-16T09:23:29;18.70;81.40
7606;DHT22;3844;53.360;9.738;2022-10-16T09:25:31;18.60;81.40
7606;DHT22;3844;53.360;9.738;2022-10-16T09:27:32;18.50;82.30
7606;DHT22;3844;53.360;9.738;2022-10-16T09:29:33;18.60;82.00
7606;DHT22;3844;53.360;9.738;2022-10-16T09:31:36;18.90;81.40
7606;DHT22;3844;53.360;9.738;2022-10-16T09:33:39;19.00;80.90
7606;DHT22;3844;53.360;9.738;2022-10-16T09:35:47;19.00;79.90
7606;DHT22;3844;53.360;9.738;2022-10-16T09:37:51;18.80;79.70
7606;DHT22;3844;53.360;9.738;2022-10-16T09:39:52;18.80;79.80
7606;DHT22;3844;53.360;9.738;2022-10-16T09:41:54;18.50;82.70
7606;DHT22;3844;53.360;9.738;2022-10-16T09:43:57;18.80;82.30
7606;DHT22;3844;53.360;9.738;2022-10-16T09:46:02;19.00;80.90
7606;DHT22;3844;53.360;9.738;2022-10-16T09:48:12;19.00;80.90
7606;DHT22;3844;53.360;9.738;2022-10-16T09:50:25;18.70;81.60
7606;DHT22;3844;53.360;9.738;2022-10-16T09:52:27;18.90;81.20
7606;DHT22;3844;53.360;9.738;2022-10-16T09:54:28;19.10;80.70
7606;DHT22;3844;53.360;9.738;2022-10-16T09:56:34;19.30;78.60
7606;DHT22;3844;53.360;9.738;2022-10-16T09:58:36;19.50;77.90
7606;DHT22;3844;53.360;9.738;2022-10-16T10:00:41;19.50;77.70
7606;DHT22;3844;53.360;9.738;2022-10-16T10:02:42;19.70;79.00
7606;DHT22;3844;53.360;9.738;2022-10-16T10:04:53;19.90;76.90
7606;DHT22;3844;53.360;9.738;2022-10-16T10:06:56;20.00;76.50
7606;DHT22;3844;53.360;9.738;2022-10-16T10:10:59;20.30;77.20
7606;DHT22;3844;53.360;9.738;2022-10-16T10:13:00;20.30;74.80
7606;DHT22;3844;53.360;9.738;2022-10-16T10:15:07;20.50;74.50
7606;DHT22;3844;53.360;9.738;2022-10-16T10:17:12;20.80;74.30
7606;DHT22;3844;53.360;9.738;2022-10-16T10:19:21;21.00;73.60
7606;DHT22;3844;53.360;9.738;2022-10-16T10:21:22;21.00;72.70
7606;DHT22;3844;53.360;9.738;2022-10-16T10:23:25;21.10;73.10
7606;DHT22;3844;53.360;9.738;2022-10-16T10:28:23;21.30;71.40
7606;DHT22;3844;53.360;9.738;2022-10-16T10:35:22;21.10;69.80
7606;DHT22;3844;53.360;9.738;2022-10-16T10:37:34;20.70;72.40
7606;DHT22;3844;53.360;9.738;2022-10-16T10:39:50;20.60;73.10
7606;DHT22;3844;53.360;9.738;2022-10-16T10:44:29;20.20;73.30
7606;DHT22;3844;53.360;9.738;2022-10-16T11:02:48;21.60;69.30
7606;DHT22;3844;53.360;9.738;2022-10-16T11:07:32;21.80;67.70
7606;DHT22;3844;53.360;9.738;2022-10-16T11:09:42;21.70;68.40
7606;DHT22;3844;53.360;9.738;2022-10-16T11:11:58;21.70;67.90
7606;DHT22;3844;53.360;9.738;2022-10-16T11:17:01;21.90;67.50
7606;DHT22;3844;53.360;9.738;2022-10-16T11:19:14;21.70;69.40
7606;DHT22;3844;53.360;9.738;2022-10-16T11:21:21;21.80;69.30
7606;DHT22;3844;53.360;9.738;2022-10-16T11:23:24;21.80;69.00
7606;DHT22;3844;53.360;9.738;2022-10-16T11:25:31;21.80;68.30
7606;DHT22;3844;53.360;9.738;2022-10-16T11:30:04;22.30;65.30
7606;DHT22;3844;53.360;9.738;2022-10-16T11:32:24;22.20;67.80
7606;DHT22;3844;53.360;9.738;2022-10-16T11:34:41;22.20;66.50
7606;DHT22;3844;53.360;9.738;2022-10-16T11:41:04;22.10;68.10
7606;DHT22;3844;53.360;9.738;2022-10-16T11:43:18;22.10;66.20
7606;DHT22;3844;53.360;9.738;2022-10-16T11:45:33;21.80;66.90
7606;DHT22;3844;53.360;9.738;2022-10-16T11:47:48;21.50;66.90
7606;DHT22;3844;53.360;9.738;2022-10-16T11:49:55;21.20;68.50
7606;DHT22;3844;53.360;9.738;2022-10-16T11:52:24;20.80;70.40
7606;DHT22;3844;53.360;9.738;2022-10-16T11:54:37;20.70;70.40
7606;DHT22;3844;53.360;9.738;2022-10-16T11:56:41;20.70;71.00
7606;DHT22;3844;53.360;9.738;2022-10-16T11:58:57;20.60;71.40
7606;DHT22;3844;53.360;9.738;2022-10-16T12:01:51;20.50;70.20
7606;DHT22;3844;53.360;9.738;2022-10-16T12:08:13;20.80;69.80
7606;DHT22;3844;53.360;9.738;2022-10-16T12:10:24;21.00;68.70
7606;DHT22;3844;53.360;9.738;2022-10-16T12:14:39;21.60;64.80
7606;DHT22;3844;53.360;9.738;2022-10-16T12:19:10;21.40;66.70
7606;DHT22;3844;53.360;9.738;2022-10-16T12:21:13;21.30;66.60
7606;DHT22;3844;53.360;9.738;2022-10-16T12:23:20;21.00;65.30
7606;DHT22;3844;53.360;9.738;2022-10-16T12:27:29;21.00;67.70
7606;DHT22;3844;53.360;9.738;2022-10-16T12:29:41;21.20;68.00
7606;DHT22;3844;53.360;9.738;2022-10-16T12:31:46;21.40;66.60
7606;DHT22;3844;53.360;9.738;2022-10-16T12:33:58;21.10;66.50
7606;DHT22;3844;53.360;9.738;2022-10-16T12:36:03;20.70;67.50
7606;DHT22;3844;53.360;9.738;2022-10-16T12:38:08;20.70;70.30
7606;DHT22;3844;53.360;9.738;2022-10-16T12:40:34;21.10;69.30
7606;DHT22;3844;53.360;9.738;2022-10-16T12:42:35;21.50;67.30
7606;DHT22;3844;53.360;9.738;2022-10-16T12:44:36;21.90;65.90
7606;DHT22;3844;53.360;9.738;2022-10-16T12:46:39;22.00;64.30
7606;DHT22;3844;53.360;9.738;2022-10-16T12:48:42;22.00;63.70
7606;DHT22;3844;53.360;9.738;2022-10-16T12:50:44;21.90;64.00
7606;DHT22;3844;53.360;9.738;2022-10-16T12:52:45;22.00;64.40
7606;DHT22;3844;53.360;9.738;2022-10-16T12:54:47;22.10;64.10
7606;DHT22;3844;53.360;9.738;2022-10-16T12:57:00;22.20;64.70
7606;DHT22;3844;53.360;9.738;2022-10-16T13:01:31;22.60;64.00
7606;DHT22;3844;53.360;9.738;2022-10-16T13:10:35;23.30;62.40
7606;DHT22;3844;53.360;9.738;2022-10-16T13:19:44;22.50;62.20
7606;DHT22;3844;53.360;9.738;2022-10-16T13:28:39;22.70;62.30
7606;DHT22;3844;53.360;9.738;2022-10-16T13:30:43;22.80;60.70
7606;DHT22;3844;53.360;9.738;2022-10-16T13:32:46;22.50;61.30
7606;DHT22;3844;53.360;9.738;2022-10-16T13:34:49;22.00;63.20
7606;DHT22;3844;53.360;9.738;2022-10-16T13:36:52;21.40;63.00
7606;DHT22;3844;53.360;9.738;2022-10-16T13:41:17;21.20;66.60
7606;DHT22;3844;53.360;9.738;2022-10-16T13:43:19;21.30;64.80
7606;DHT22;3844;53.360;9.738;2022-10-16T13:45:23;21.10;64.20
7606;DHT22;3844;53.360;9.738;2022-10-16T13:47:28;21.00;65.30
7606;DHT22;3844;53.360;9.738;2022-10-16T13:49:28;20.90;65.10
7606;DHT22;3844;53.360;9.738;2022-10-16T13:51:30;21.00;65.00
7606;DHT22;3844;53.360;9.738;2022-10-16T13:53:33;21.10;65.90
7606;DHT22;3844;53.360;9.738;2022-10-16T13:55:34;21.10;66.20
7606;DHT22;3844;53.360;9.738;2022-10-16T13:57:35;21.00;65.50
7606;DHT22;3844;53.360;9.738;2022-10-16T13:59:37;21.00;66.20
7606;DHT22;3844;53.360;9.738;2022-10-16T14:01:43;20.80;65.70
7606;DHT22;3844;53.360;9.738;2022-10-16T14:03:45;20.70;67.20
7606;DHT22;3844;53.360;9.738;2022-10-16T14:05:52;20.50;68.00
7606;DHT22;3844;53.360;9.738;2022-10-16T14:07:54;20.40;66.40
7606;DHT22;3844;53.360;9.738;2022-10-16T14:09:56;20.20;67.20
7606;DHT22;3844;53.360;9.738;2022-10-16T14:12:02;19.90;67.50
7606;DHT22;3844;53.360;9.738;2022-10-16T14:14:03;19.60;68.80
7606;DHT22;3844;53.360;9.738;2022-10-16T14:16:09;19.40;68.90
7606;DHT22;3844;53.360;9.738;2022-10-16T14:18:20;19.30;69.70
7606;DHT22;3844;53.360;9.738;2022-10-16T14:20:24;19.10;70.20
7606;DHT22;3844;53.360;9.738;2022-10-16T14:22:36;18.90;71.10
7606;DHT22;3844;53.360;9.738;2022-10-16T14:24:37;18.80;71.40
7606;DHT22;3844;53.360;9.738;2022-10-16T14:26:42;18.60;71.10
7606;DHT22;3844;53.360;9.738;2022-10-16T14:28:44;18.50;71.90
7606;DHT22;3844;53.360;9.738;2022-10-16T14:30:55;18.40;72.30
7606;DHT22;3844;53.360;9.738;2022-10-16T14:33:04;18.30;73.10
7606;DHT22;3844;53.360;9.738;2022-10-16T14:35:22;18.20;72.30
7606;DHT22;3844;53.360;9.738;2022-10-16T14:37:26;18.00;73.40
7606;DHT22;3844;53.360;9.738;2022-10-16T14:39:28;18.00;74.50
7606;DHT22;3844;53.360;9.738;2022-10-16T14:41:33;17.80;73.00
7606;DHT22;3844;53.360;9.738;2022-10-16T14:43:38;17.70;73.80
7606;DHT22;3844;53.360;9.738;2022-10-16T14:45:40;17.70;75.00
7606;DHT22;3844;53.360;9.738;2022-10-16T14:47:50;17.50;73.70
7606;DHT22;3844;53.360;9.738;2022-10-16T14:49:53;17.50;75.10
7606;DHT22;3844;53.360;9.738;2022-10-16T14:51:59;17.40;73.90
7606;DHT22;3844;53.360;9.738;2022-10-16T14:53:59;17.30;74.30
7606;DHT22;3844;53.360;9.738;2022-10-16T14:56:14;17.30;75.10
7606;DHT22;3844;53.360;9.738;2022-10-16T14:58:22;17.20;75.50
7606;DHT22;3844;53.360;9.738;2022-10-16T15:00:24;17.20;75.40
7606;DHT22;3844;53.360;9.738;2022-10-16T15:02:28;17.10;75.80
7606;DHT22;3844;53.360;9.738;2022-10-16T15:04:30;17.00;75.60
7606;DHT22;3844;53.360;9.738;2022-10-16T15:06:30;17.00;75.30
7606;DHT22;3844;53.360;9.738;2022-10-16T15:08:31;17.00;75.40
7606;DHT22;3844;53.360;9.738;2022-10-16T15:10:38;16.90;76.10
7606;DHT22;3844;53.360;9.738;2022-10-16T15:12:39;16.90;76.60
7606;DHT22;3844;53.360;9.738;2022-10-16T15:14:40;16.80;77.00
7606;DHT22;3844;53.360;9.738;2022-10-16T15:16:40;16.70;77.00
7606;DHT22;3844;53.360;9.738;2022-10-16T15:18:42;16.60;77.60
7606;DHT22;3844;53.360;9.738;2022-10-16T15:20:43;16.60;77.00
7606;DHT22;3844;53.360;9.738;2022-10-16T15:22:46;16.50;78.20
7606;DHT22;3844;53.360;9.738;2022-10-16T15:24:47;16.40;78.70
7606;DHT22;3844;53.360;9.738;2022-10-16T15:26:48;16.30;77.40
7606;DHT22;3844;53.360;9.738;2022-10-16T15:28:49;16.30;77.60
7606;DHT22;3844;53.360;9.738;2022-10-16T15:30:52;16.20;78.30
7606;DHT22;3844;53.360;9.738;2022-10-16T15:32:53;16.10;79.40
7606;DHT22;3844;53.360;9.738;2022-10-16T15:34:54;16.10;79.60
7606;DHT22;3844;53.360;9.738;2022-10-16T15:36:55;16.00;80.20
7606;DHT22;3844;53.360;9.738;2022-10-16T15:38:58;15.90;80.50
7606;DHT22;3844;53.360;9.738;2022-10-16T15:40:58;15.70;81.30
7606;DHT22;3844;53.360;9.738;2022-10-16T15:42:59;15.70;80.90
7606;DHT22;3844;53.360;9.738;2022-10-16T15:45:00;15.60;81.50
7606;DHT22;3844;53.360;9.738;2022-10-16T15:47:00;15.50;82.10
7606;DHT22;3844;53.360;9.738;2022-10-16T15:49:01;15.40;82.30
7606;DHT22;3844;53.360;9.738;2022-10-16T15:51:05;15.30;83.00
7606;DHT22;3844;53.360;9.738;2022-10-16T15:53:06;15.20;83.20
7606;DHT22;3844;53.360;9.738;2022-10-16T15:55:09;15.10;83.10
7606;DHT22;3844;53.360;9.738;2022-10-16T15:57:10;15.00;83.20
7606;DHT22;3844;53.360;9.738;2022-10-16T15:59:10;14.90;83.40
7606;DHT22;3844;53.360;9.738;2022-10-16T16:01:11;14.80;83.70
7606;DHT22;3844;53.360;9.738;2022-10-16T16:03:12;14.80;83.80
7606;DHT22;3844;53.360;9.738;2022-10-16T16:05:13;14.70;84.10
7606;DHT22;3844;53.360;9.738;2022-10-16T16:07:14;14.60;84.40
7606;DHT22;3844;53.360;9.738;2022-10-16T16:09:15;14.60;84.70
7606;DHT22;3844;53.360;9.738;2022-10-16T16:11:17;14.50;84.90
7606;DHT22;3844;53.360;9.738;2022-10-16T16:13:18;14.40;85.10
7606;DHT22;3844;53.360;9.738;2022-10-16T16:15:22;14.30;85.50
7606;DHT22;3844;53.360;9.738;2022-10-16T16:17:22;14.20;85.70
7606;DHT22;3844;53.360;9.738;2022-10-16T16:19:24;14.20;86.00
7606;DHT22;3844;53.360;9.738;2022-10-16T16:21:25;14.10;86.10
7606;DHT22;3844;53.360;9.738;2022-10-16T16:23:26;14.10;86.10
7606;DHT22;3844;53.360;9.738;2022-10-16T16:25:26;14.00;86.20
7606;DHT22;3844;53.360;9.738;2022-10-16T16:27:27;14.00;86.20
7606;DHT22;3844;53.360;9.738;2022-10-16T16:29:29;13.90;86.50
7606;DHT22;3844;53.360;9.738;2022-10-16T16:31:32;13.90;86.60
7606;DHT22;3844;53.360;9.738;2022-10-16T16:33:33;13.80;86.60
7606;DHT22;3844;53.360;9.738;2022-10-16T16:37:35;13.70;87.00
7606;DHT22;3844;53.360;9.738;2022-10-16T16:39:35;13.60;87.10
7606;DHT22;3844;53.360;9.738;2022-10-16T16:43:37;13.40;87.70
7606;DHT22;3844;53.360;9.738;2022-10-16T16:45:38;13.30;87.70
7606;DHT22;3844;53.360;9.738;2022-10-16T16:47:38;13.20;88.10
7606;DHT22;3844;53.360;9.738;2022-10-16T16:49:39;13.10;88.80
7606;DHT22;3844;53.360;9.738;2022-10-16T16:51:41;13.10;89.00
7606;DHT22;3844;53.360;9.738;2022-10-16T16:53:42;13.00;89.20
7606;DHT22;3844;53.360;9.738;2022-10-16T16:55:43;12.90;89.40
7606;DHT22;3844;53.360;9.738;2022-10-16T16:57:44;12.90;89.60
7606;DHT22;3844;53.360;9.738;2022-10-16T16:59:49;12.90;89.60
7606;DHT22;3844;53.360;9.738;2022-10-16T17:01:50;12.80;90.10
7606;DHT22;3844;53.360;9.738;2022-10-16T17:03:53;12.70;90.20
7606;DHT22;3844;53.360;9.738;2022-10-16T17:05:59;12.70;90.20